Time;durP1;ratioP1;P1;durP2;ratioP2;P2;SDS_P1;SDS_P2;PMS_P1;PMS_P2;Temp;Humidity;BMP_temperature;BMP_pressure;BME280_temperature;BME280_humidity;BME280_pressure;Samples;Min_cycle;Max_cycle;Signal;HPM_P1;HPM_P2
2023/04/04 00:00:16;;;;;;;11.82;2.63;;;;;;;;;;1036726;28;20940;-19
2023/04/04 00:00:47;;;;;;;17.48;2.55;;;;;;;;;;1036850;28;20485;-19
2023/04/04 00:01:18;;;;;;;5.90;1.58;;;;;;;;;;1036989;28;20466;-23
2023/04/04 00:01:48;;;;;;;7.38;1.92;;;;;;;;;;1036604;28;20107;-23
2023/04/04 00:02:19;;;;;;;13.45;2.17;;;;;;;;;;1036872;28;20385;-21
2023/04/04 00:02:49;;;;;;;5.18;2.90;;;;;;;;;;1036811;28;20114;-23
2023/04/04 00:03:20;;;;;;;2.13;1.90;;;;;;;;;;1037045;28;20075;-21
2023/04/04 00:03:51;;;;;;;12.38;5.28;;;;;;;;;;1036698;28;20022;-18
2023/04/04 00:04:21;;;;;;;6.07;3.25;;;;;;;;;;1036985;28;20543;-23
2023/04/04 00:04:52;;;;;;;10.05;2.85;;;;;;;;;;1036338;28;20033;-19
2023/04/04 00:05:23;;;;;;;26.48;2.80;;;;;;;;;;1036547;28;20026;-22
2023/04/04 00:05:53;;;;;;;3.13;2.08;;;;;;;;;;1036725;28;20026;-22
2023/04/04 00:06:24;;;;;;;7.35;3.13;;;;;;;;;;1036830;28;20026;-19
2023/04/04 00:06:55;;;;;;;4.57;1.88;;;;;;;;;;1036773;28;20037;-21
2023/04/04 00:07:26;;;;;;;2.28;1.73;;;;;;;;;;1036861;28;20022;-20
2023/04/04 00:07:56;;;;;;;4.35;1.77;;;;;;;;;;1036726;28;20123;-22
2023/04/04 00:08:27;;;;;;;4.18;2.75;;;;;;;;;;1036841;28;20076;-22
2023/04/04 00:08:57;;;;;;;23.02;1.67;;;;;;;;;;1036493;28;20504;-23
2023/04/04 00:09:28;;;;;;;8.38;2.30;;;;;;;;;;1036507;28;20030;-23
2023/04/04 00:09:58;;;;;;;4.95;2.75;;;;;;;;;;1034997;28;20026;-21
2023/04/04 00:10:29;;;;;;;8.82;3.15;;;;;;;;;;1036511;28;20398;-22
2023/04/04 00:11:00;;;;;;;1.50;1.40;;;;;;;;;;1036995;28;20030;-20
2023/04/04 00:11:30;;;;;;;11.75;3.85;;;;;;;;;;1036665;28;20116;-22
2023/04/04 00:12:01;;;;;;;11.20;2.65;;;;;;;;;;1036911;28;20024;-21
2023/04/04 00:12:32;;;;;;;17.02;1.38;;;;;;;;;;1036389;28;20025;-21
2023/04/04 00:13:04;;;;;;;12.55;2.15;;;;;;;;;;1036960;28;20021;-21
2023/04/04 00:13:34;;;;;;;7.20;1.55;;;;;;;;;;1036716;28;20370;-22
2023/04/04 00:14:05;;;;;;;11.13;4.15;;;;;;;;;;1036838;28;20029;-22
2023/04/04 00:14:36;;;;;;;5.57;1.95;;;;;;;;;;1036576;28;20021;-22
2023/04/04 00:15:06;;;;;;;9.00;2.15;;;;;;;;;;1036981;28;20152;-22
2023/04/04 00:15:37;;;;;;;5.55;1.48;;;;;;;;;;1035889;28;20033;-20
2023/04/04 00:16:09;;;;;;;3.90;2.42;;;;;;;;;;1036584;28;20061;-23
2023/04/04 00:16:39;;;;;;;16.55;3.85;;;;;;;;;;1036267;28;20021;-21
2023/04/04 00:17:10;;;;;;;10.40;2.30;;;;;;;;;;1036586;28;20053;-21
2023/04/04 00:17:40;;;;;;;5.07;1.77;;;;;;;;;;1036287;28;20022;-24
2023/04/04 00:18:11;;;;;;;3.75;1.98;;;;;;;;;;1036558;28;20037;-23
2023/04/04 00:18:41;;;;;;;10.15;2.95;;;;;;;;;;1036271;28;20160;-23
2023/04/04 00:19:16;;;;;;;21.23;2.88;;;;;;;;;;1036643;28;20022;-21
2023/04/04 00:19:47;;;;;;;16.92;2.28;;;;;;;;;;1035812;28;20018;-22
2023/04/04 00:20:17;;;;;;;6.30;2.80;;;;;;;;;;1036898;28;20033;-21
2023/04/04 00:20:48;;;;;;;5.75;2.50;;;;;;;;;;1036431;28;20083;-22
2023/04/04 00:21:19;;;;;;;1.80;1.60;;;;;;;;;;1036845;28;20017;-23
2023/04/04 00:21:49;;;;;;;15.90;2.33;;;;;;;;;;1036566;28;20437;-23
2023/04/04 00:22:20;;;;;;;15.57;3.33;;;;;;;;;;1036893;28;20108;-22
2023/04/04 00:22:50;;;;;;;14.40;2.88;;;;;;;;;;1036773;28;20033;-22
2023/04/04 00:23:21;;;;;;;21.50;4.95;;;;;;;;;;1036986;28;20080;-21
2023/04/04 00:23:53;;;;;;;9.20;2.95;;;;;;;;;;1036618;28;20029;-21
2023/04/04 00:24:24;;;;;;;4.90;2.28;;;;;;;;;;1036944;28;20504;-20
2023/04/04 00:24:54;;;;;;;16.73;2.80;;;;;;;;;;1036713;28;20075;-22
2023/04/04 00:25:24;;;;;;;6.57;3.13;;;;;;;;;;1036941;28;20026;-21
2023/04/04 00:25:55;;;;;;;14.25;2.78;;;;;;;;;;1036638;28;20072;-22
2023/04/04 00:26:26;;;;;;;16.65;2.75;;;;;;;;;;1036763;28;20107;-22
2023/04/04 00:26:56;;;;;;;2.00;1.50;;;;;;;;;;1036583;28;20022;-21
2023/04/04 00:27:27;;;;;;;24.60;1.98;;;;;;;;;;1036159;28;20145;-21
2023/04/04 00:27:59;;;;;;;26.67;1.52;;;;;;;;;;1036776;28;20029;-22
2023/04/04 00:28:30;;;;;;;6.13;1.48;;;;;;;;;;1035729;28;20417;-22
2023/04/04 00:29:00;;;;;;;9.80;1.75;;;;;;;;;;1036925;28;20025;-21
2023/04/04 00:29:33;;;;;;;5.50;1.70;;;;;;;;;;1036712;28;20026;-21
2023/04/04 00:30:04;;;;;;;2.00;1.75;;;;;;;;;;1036937;28;20413;-22
2023/04/04 00:30:34;;;;;;;8.15;3.15;;;;;;;;;;1036759;28;20108;-22
2023/04/04 00:31:05;;;;;;;19.38;4.22;;;;;;;;;;1036969;28;20531;-22
2023/04/04 00:31:35;;;;;;;2.22;1.67;;;;;;;;;;1036665;28;20025;-20
2023/04/04 00:32:06;;;;;;;5.85;2.92;;;;;;;;;;1036908;28;20028;-23
2023/04/04 00:32:36;;;;;;;11.70;2.65;;;;;;;;;;1036016;28;20026;-20
2023/04/04 00:33:07;;;;;;;8.02;2.25;;;;;;;;;;1036631;28;20099;-21
2023/04/04 00:33:37;;;;;;;7.03;2.03;;;;;;;;;;1036349;28;20021;-23
2023/04/04 00:34:08;;;;;;;6.05;2.08;;;;;;;;;;1036650;28;20030;-23
2023/04/04 00:34:38;;;;;;;4.53;2.65;;;;;;;;;;1036722;28;20044;-23
2023/04/04 00:35:09;;;;;;;3.55;2.33;;;;;;;;;;1036879;28;20025;-23
2023/04/04 00:35:40;;;;;;;16.15;2.47;;;;;;;;;;1036541;28;20022;-24
2023/04/04 00:36:11;;;;;;;2.10;1.25;;;;;;;;;;1036876;28;20037;-22
2023/04/04 00:36:42;;;;;;;6.43;2.13;;;;;;;;;;1036600;28;20113;-22
2023/04/04 00:37:12;;;;;;;5.88;2.38;;;;;;;;;;1036683;28;20128;-23
2023/04/04 00:37:42;;;;;;;13.95;1.23;;;;;;;;;;1036646;28;20026;-20
2023/04/04 00:38:13;;;;;;;2.90;1.20;;;;;;;;;;1035795;28;20496;-21
2023/04/04 00:38:44;;;;;;;7.93;3.58;;;;;;;;;;1036613;28;20026;-21
2023/04/04 00:39:14;;;;;;;24.70;2.25;;;;;;;;;;1036815;28;20072;-22
2023/04/04 00:39:45;;;;;;;6.47;3.80;;;;;;;;;;1036559;28;20013;-21
2023/04/04 00:40:16;;;;;;;3.65;1.25;;;;;;;;;;1036786;28;20032;-20
2023/04/04 00:40:48;;;;;;;3.28;2.92;;;;;;;;;;1036608;28;20029;-21
2023/04/04 00:41:18;;;;;;;7.75;3.13;;;;;;;;;;1036997;28;20630;-21
2023/04/04 00:41:49;;;;;;;3.17;2.33;;;;;;;;;;1036523;28;20243;-24
2023/04/04 00:42:20;;;;;;;2.97;1.55;;;;;;;;;;1036556;28;20021;-20
2023/04/04 00:42:50;;;;;;;3.17;1.52;;;;;;;;;;1036777;28;20030;-19
2023/04/04 00:43:21;;;;;;;5.43;1.33;;;;;;;;;;1036998;28;20125;-23
2023/04/04 00:43:53;;;;;;;10.00;2.90;;;;;;;;;;1035409;28;20374;-22
2023/04/04 00:44:24;;;;;;;3.40;2.22;;;;;;;;;;1036906;28;20380;-21
2023/04/04 00:44:55;;;;;;;4.18;1.85;;;;;;;;;;1036569;28;20034;-22
2023/04/04 00:45:26;;;;;;;28.08;3.70;;;;;;;;;;1036014;28;20471;-21
2023/04/04 00:45:56;;;;;;;2.97;2.33;;;;;;;;;;1036317;28;20037;-20
2023/04/04 00:46:28;;;;;;;7.28;2.15;;;;;;;;;;1036772;28;20024;-22
2023/04/04 00:46:58;;;;;;;15.25;2.22;;;;;;;;;;1036813;28;20025;-22
2023/04/04 00:47:30;;;;;;;16.02;2.00;;;;;;;;;;1035387;28;20025;-23
2023/04/04 00:48:01;;;;;;;4.78;1.20;;;;;;;;;;1036749;28;20053;-21
2023/04/04 00:48:32;;;;;;;23.27;6.82;;;;;;;;;;1036709;28;20438;-22
2023/04/04 00:49:02;;;;;;;3.65;2.42;;;;;;;;;;1037057;28;20013;-21
2023/04/04 00:49:33;;;;;;;10.30;2.00;;;;;;;;;;1036567;28;20029;-21
2023/04/04 00:50:04;;;;;;;3.40;1.77;;;;;;;;;;1036744;28;20028;-21
2023/04/04 00:50:35;;;;;;;13.85;2.55;;;;;;;;;;1035441;28;20033;-22
2023/04/04 00:51:05;;;;;;;1.55;1.45;;;;;;;;;;1036840;28;20052;-24
2023/04/04 00:51:36;;;;;;;6.00;2.33;;;;;;;;;;1036544;28;20026;-21
2023/04/04 00:52:06;;;;;;;13.88;2.15;;;;;;;;;;1036791;28;20029;-22
2023/04/04 00:52:37;;;;;;;2.78;1.95;;;;;;;;;;1035622;28;20473;-23
2023/04/04 00:53:08;;;;;;;4.20;1.73;;;;;;;;;;1036853;28;20129;-23
2023/04/04 00:53:38;;;;;;;3.35;2.08;;;;;;;;;;1036364;28;20069;-20
2023/04/04 00:54:09;;;;;;;3.08;1.80;;;;;;;;;;1036928;28;20394;-22
2023/04/04 00:54:40;;;;;;;5.57;2.05;;;;;;;;;;1036472;28;20396;-21
2023/04/04 00:55:10;;;;;;;1.10;0.93;;;;;;;;;;1036494;28;20435;-23
2023/04/04 00:55:42;;;;;;;5.32;1.17;;;;;;;;;;1035751;28;20112;-23
2023/04/04 00:56:14;;;;;;;8.23;2.47;;;;;;;;;;1036842;28;20022;-23
2023/04/04 00:56:45;;;;;;;4.93;2.42;;;;;;;;;;1034981;28;20480;-23
2023/04/04 00:57:16;;;;;;;3.10;1.85;;;;;;;;;;1036026;28;20018;-20
2023/04/04 00:57:46;;;;;;;5.82;3.35;;;;;;;;;;1036157;28;20607;-23
2023/04/04 00:58:18;;;;;;;8.07;2.15;;;;;;;;;;1036653;28;20024;-23
2023/04/04 00:58:48;;;;;;;3.50;1.30;;;;;;;;;;1036445;28;20125;-21
2023/04/04 00:59:19;;;;;;;5.50;2.58;;;;;;;;;;1036874;28;20034;-22
2023/04/04 00:59:49;;;;;;;5.00;1.80;;;;;;;;;;1035955;28;20133;-19
2023/04/04 01:00:20;;;;;;;3.10;2.05;;;;;;;;;;1035577;28;20025;-23
2023/04/04 01:00:51;;;;;;;6.00;2.60;;;;;;;;;;1036518;28;20026;-21
2023/04/04 01:01:24;;;;;;;8.23;2.88;;;;;;;;;;1036712;28;20037;-19
2023/04/04 01:01:55;;;;;;;11.18;3.40;;;;;;;;;;1035294;28;20371;-23
2023/04/04 01:02:25;;;;;;;4.18;1.25;;;;;;;;;;1036705;28;20036;-22
2023/04/04 01:02:56;;;;;;;4.88;2.53;;;;;;;;;;1036497;28;20515;-21
2023/04/04 01:03:28;;;;;;;4.88;2.67;;;;;;;;;;1036043;28;20061;-22
2023/04/04 01:03:59;;;;;;;9.70;4.28;;;;;;;;;;1036519;28;20037;-23
2023/04/04 01:04:30;;;;;;;8.00;2.35;;;;;;;;;;1035566;28;20028;-18
2023/04/04 01:05:01;;;;;;;9.75;1.42;;;;;;;;;;1036454;28;20096;-19
2023/04/04 01:05:32;;;;;;;23.05;1.92;;;;;;;;;;1036374;28;20084;-21
2023/04/04 01:06:03;;;;;;;9.40;3.08;;;;;;;;;;1036390;28;20446;-22
2023/04/04 01:06:33;;;;;;;15.57;2.88;;;;;;;;;;1036248;28;20037;-23
2023/04/04 01:07:04;;;;;;;18.65;4.70;;;;;;;;;;1035090;28;20049;-19
2023/04/04 01:07:35;;;;;;;6.63;1.58;;;;;;;;;;1034974;28;20187;-21
2023/04/04 01:08:06;;;;;;;3.70;1.50;;;;;;;;;;1036102;28;20072;-22
2023/04/04 01:08:39;;;;;;;7.30;2.33;;;;;;;;;;1035784;28;20098;-22
2023/04/04 01:09:11;;;;;;;3.65;2.05;;;;;;;;;;1036053;28;20049;-21
2023/04/04 01:09:41;;;;;;;13.77;2.63;;;;;;;;;;1035883;28;20026;-20
2023/04/04 01:10:12;;;;;;;4.13;1.90;;;;;;;;;;1035732;28;20022;-21
2023/04/04 01:10:42;;;;;;;2.70;1.80;;;;;;;;;;1035751;28;20502;-22
2023/04/04 01:11:14;;;;;;;4.10;2.30;;;;;;;;;;1036188;28;20029;-22
2023/04/04 01:11:44;;;;;;;7.85;4.93;;;;;;;;;;1034795;28;20057;-20
2023/04/04 01:12:15;;;;;;;15.10;4.05;;;;;;;;;;1035735;28;20532;-20
2023/04/04 01:12:46;;;;;;;5.40;2.92;;;;;;;;;;1035716;28;20127;-20
2023/04/04 01:13:17;;;;;;;1.48;1.35;;;;;;;;;;1033709;28;20026;-23
2023/04/04 01:13:48;;;;;;;9.23;1.73;;;;;;;;;;1034963;28;20080;-21
2023/04/04 01:14:18;;;;;;;11.95;3.90;;;;;;;;;;1035292;28;20470;-20
2023/04/04 01:14:49;;;;;;;12.40;2.45;;;;;;;;;;1033949;28;20025;-21
2023/04/04 01:15:19;;;;;;;12.95;3.50;;;;;;;;;;1035011;28;20414;-22
2023/04/04 01:15:50;;;;;;;5.55;1.10;;;;;;;;;;1035545;28;20029;-21
2023/04/04 01:16:22;;;;;;;10.25;1.90;;;;;;;;;;1036030;28;20025;-21
2023/04/04 01:16:53;;;;;;;3.30;1.75;;;;;;;;;;1035051;28;20032;-20
2023/04/04 01:17:25;;;;;;;4.80;2.17;;;;;;;;;;1035568;28;20029;-22
2023/04/04 01:18:01;;;;;;;10.55;1.90;;;;;;;;;;1035849;28;20026;-21
2023/04/04 01:18:33;;;;;;;2.95;2.67;;;;;;;;;;1034715;28;20033;-22
2023/04/04 01:19:05;;;;;;;41.63;3.30;;;;;;;;;;1034484;28;20025;-19
2023/04/04 01:19:38;;;;;;;22.02;3.45;;;;;;;;;;1032911;28;20057;-20
2023/04/04 01:20:14;;;;;;;6.40;2.20;;;;;;;;;;1032853;28;20030;-21
2023/04/04 01:21:01;;;;;;;12.60;4.55;;;;;;;;;;1032176;28;20093;-22
2023/04/04 01:21:31;;;;;;;27.88;4.57;;;;;;;;;;1034004;28;20124;-21
2023/04/04 01:22:03;;;;;;;25.88;6.75;;;;;;;;;;1034494;28;20105;-23
2023/04/04 01:22:34;;;;;;;18.30;3.78;;;;;;;;;;1035069;28;20124;-20
2023/04/04 01:23:05;;;;;;;14.50;3.53;;;;;;;;;;1031728;28;20088;-23
2023/04/04 01:23:51;;;;;;;15.07;4.47;;;;;;;;;;1039216;28;20114;-21
2023/04/04 01:24:23;;;;;;;6.70;2.83;;;;;;;;;;1039708;28;20026;-23
2023/04/04 01:24:55;;;;;;;18.75;5.05;;;;;;;;;;1039506;28;20036;-23
2023/04/04 01:25:29;;;;;;;11.25;3.30;;;;;;;;;;1036601;28;20116;-23
2023/04/04 01:26:02;;;;;;;4.70;3.08;;;;;;;;;;1033645;28;20076;-23
2023/04/04 01:26:33;;;;;;;26.23;5.07;;;;;;;;;;1034817;28;20381;-21
2023/04/04 01:27:04;;;;;;;5.38;2.40;;;;;;;;;;1033884;28;20028;-21
2023/04/04 01:27:34;;;;;;;20.25;1.90;;;;;;;;;;1031856;28;20153;-23
2023/04/04 01:28:05;;;;;;;7.20;3.85;;;;;;;;;;1030964;28;20494;-20
2023/04/04 01:28:36;;;;;;;11.52;3.53;;;;;;;;;;1030055;28;20040;-23
2023/04/04 01:29:06;;;;;;;21.20;4.38;;;;;;;;;;1030930;28;20038;-23
2023/04/04 01:29:37;;;;;;;3.70;1.92;;;;;;;;;;1031276;28;20501;-20
2023/04/04 01:30:07;;;;;;;20.63;4.03;;;;;;;;;;1033757;28;20022;-21
2023/04/04 01:30:39;;;;;;;13.88;2.83;;;;;;;;;;1032693;28;20026;-23
2023/04/04 01:31:11;;;;;;;9.00;4.55;;;;;;;;;;1034658;28;20039;-23
2023/04/04 01:31:46;;;;;;;12.77;4.63;;;;;;;;;;1033645;28;20510;-20
2023/04/04 01:32:24;;;;;;;2.35;2.03;;;;;;;;;;1035437;28;20055;-21
2023/04/04 01:32:58;;;;;;;6.85;2.47;;;;;;;;;;1033836;28;20022;-23
2023/04/04 01:33:32;;;;;;;12.70;3.50;;;;;;;;;;1033977;28;20038;-20
2023/04/04 01:34:21;;;;;;;19.45;3.10;;;;;;;;;;1033185;28;20139;-22
2023/04/04 01:34:54;;;;;;;10.88;4.20;;;;;;;;;;1033409;28;20077;-23
2023/04/04 01:35:26;;;;;;;5.47;2.95;;;;;;;;;;1033733;28;20034;-20
2023/04/04 01:36:17;;;;;;;5.47;2.17;;;;;;;;;;1033596;28;20123;-22
2023/04/04 01:37:00;;;;;;;6.70;2.05;;;;;;;;;;1033180;28;20535;-23
2023/04/04 01:37:36;;;;;;;4.78;2.97;;;;;;;;;;1033676;28;20030;-21
2023/04/04 01:38:23;;;;;;;14.80;3.35;;;;;;;;;;1033394;28;20029;-23
2023/04/04 01:38:56;;;;;;;7.50;5.40;;;;;;;;;;1033621;28;20032;-23
2023/04/04 01:39:31;;;;;;;19.00;2.97;;;;;;;;;;1033781;28;20080;-21
2023/04/04 01:40:05;;;;;;;6.28;2.65;;;;;;;;;;1033727;28;20018;-20
2023/04/04 01:40:37;;;;;;;5.20;2.30;;;;;;;;;;1033986;28;20034;-23
2023/04/04 01:41:10;;;;;;;12.65;2.45;;;;;;;;;;1032377;28;20394;-21
2023/04/04 01:41:42;;;;;;;10.20;3.08;;;;;;;;;;1032299;28;20037;-22
2023/04/04 01:42:13;;;;;;;24.60;4.57;;;;;;;;;;1033270;28;20072;-23
2023/04/04 01:42:45;;;;;;;9.40;2.88;;;;;;;;;;1032773;28;20022;-23
2023/04/04 01:43:16;;;;;;;14.00;3.33;;;;;;;;;;1032520;28;20037;-23
2023/04/04 01:43:47;;;;;;;10.63;3.38;;;;;;;;;;1033004;28;20030;-24
2023/04/04 01:44:18;;;;;;;13.93;4.95;;;;;;;;;;1031477;28;20030;-22
2023/04/04 01:44:53;;;;;;;7.88;3.17;;;;;;;;;;1034471;28;20132;-23
2023/04/04 01:45:24;;;;;;;16.50;2.63;;;;;;;;;;1032982;28;20030;-24
2023/04/04 01:45:55;;;;;;;5.82;2.67;;;;;;;;;;1033296;28;20573;-24
2023/04/04 01:46:26;;;;;;;20.02;4.60;;;;;;;;;;1034461;28;20022;-22
2023/04/04 01:46:56;;;;;;;10.32;3.95;;;;;;;;;;1034683;28;20034;-20
2023/04/04 01:47:28;;;;;;;8.10;5.25;;;;;;;;;;1035714;28;20033;-20
2023/04/04 01:47:58;;;;;;;12.57;3.38;;;;;;;;;;1034957;28;20076;-22
2023/04/04 01:48:29;;;;;;;10.73;3.42;;;;;;;;;;1033595;28;20041;-22
2023/04/04 01:48:59;;;;;;;16.73;3.78;;;;;;;;;;1033652;28;20018;-23
2023/04/04 01:49:30;;;;;;;12.48;3.78;;;;;;;;;;1033969;28;20092;-21
2023/04/04 01:50:01;;;;;;;11.80;2.80;;;;;;;;;;1035419;28;20133;-21
2023/04/04 01:50:31;;;;;;;12.60;3.33;;;;;;;;;;1034825;28;20520;-24
2023/04/04 01:51:02;;;;;;;19.77;5.63;;;;;;;;;;1034585;28;20119;-22
2023/04/04 01:51:33;;;;;;;14.65;3.67;;;;;;;;;;1035065;28;20057;-24
2023/04/04 01:52:04;;;;;;;24.30;3.38;;;;;;;;;;1035542;28;20124;-22
2023/04/04 01:52:35;;;;;;;25.95;2.50;;;;;;;;;;1034547;28;20038;-21
2023/04/04 01:53:06;;;;;;;21.63;5.38;;;;;;;;;;1034886;28;20022;-22
2023/04/04 01:53:36;;;;;;;14.43;4.45;;;;;;;;;;1034891;28;20500;-22
2023/04/04 01:54:07;;;;;;;26.48;2.75;;;;;;;;;;1033556;28;20033;-22
2023/04/04 01:54:38;;;;;;;2.15;1.95;;;;;;;;;;1034033;28;20521;-22
2023/04/04 01:55:08;;;;;;;19.92;6.47;;;;;;;;;;1034537;28;20545;-21
2023/04/04 01:55:39;;;;;;;7.82;3.25;;;;;;;;;;1034815;28;20057;-22
2023/04/04 01:56:10;;;;;;;19.02;3.00;;;;;;;;;;1034205;28;20030;-22
2023/04/04 01:56:40;;;;;;;5.22;2.30;;;;;;;;;;1032673;28;20030;-23
2023/04/04 01:57:11;;;;;;;13.40;2.53;;;;;;;;;;1033591;28;20047;-22
2023/04/04 01:57:41;;;;;;;24.05;3.88;;;;;;;;;;1035095;28;20034;-21
2023/04/04 01:58:12;;;;;;;7.38;4.68;;;;;;;;;;1035392;28;20072;-22
2023/04/04 01:58:42;;;;;;;22.92;3.95;;;;;;;;;;1034688;28;20560;-22
2023/04/04 01:59:13;;;;;;;5.47;2.63;;;;;;;;;;1035496;28;20203;-24
2023/04/04 01:59:43;;;;;;;29.65;3.80;;;;;;;;;;1034528;28;20481;-18
2023/04/04 02:00:15;;;;;;;14.27;5.10;;;;;;;;;;1035281;28;20030;-18
2023/04/04 02:00:45;;;;;;;8.60;2.67;;;;;;;;;;1034288;28;20104;-19
2023/04/04 02:01:16;;;;;;;12.18;4.20;;;;;;;;;;1033466;28;20501;-23
2023/04/04 02:01:47;;;;;;;5.30;2.75;;;;;;;;;;1034507;28;20033;-22
2023/04/04 02:02:17;;;;;;;5.72;2.55;;;;;;;;;;1034090;28;20068;-22
2023/04/04 02:02:48;;;;;;;14.23;3.38;;;;;;;;;;1035194;28;20385;-21
2023/04/04 02:03:18;;;;;;;12.23;4.57;;;;;;;;;;1035501;28;21145;-22
2023/04/04 02:03:49;;;;;;;6.25;2.83;;;;;;;;;;1034633;28;20072;-23
2023/04/04 02:04:20;;;;;;;25.20;5.70;;;;;;;;;;1033885;28;20029;-22
2023/04/04 02:05:00;;;;;;;18.20;3.83;;;;;;;;;;1035174;28;20041;-23
2023/04/04 02:05:33;;;;;;;33.05;4.55;;;;;;;;;;1033811;28;21148;-22
2023/04/04 02:06:08;;;;;;;3.92;2.15;;;;;;;;;;1030719;28;20034;-24
2023/04/04 02:06:39;;;;;;;9.73;3.42;;;;;;;;;;1029558;28;20030;-20
2023/04/04 02:07:09;;;;;;;18.65;3.55;;;;;;;;;;1028348;28;20447;-24
2023/04/04 02:07:40;;;;;;;10.88;2.75;;;;;;;;;;1028752;28;20038;-22
2023/04/04 02:08:11;;;;;;;13.32;4.35;;;;;;;;;;1033710;28;20033;-22
2023/04/04 02:08:42;;;;;;;23.83;4.65;;;;;;;;;;1032686;28;20054;-21
2023/04/04 02:09:13;;;;;;;44.47;8.15;;;;;;;;;;1033350;28;20025;-24
2023/04/04 02:09:44;;;;;;;8.05;3.97;;;;;;;;;;1034498;28;20385;-24
2023/04/04 02:10:15;;;;;;;13.98;3.10;;;;;;;;;;1033555;28;20391;-23
2023/04/04 02:10:45;;;;;;;7.68;1.35;;;;;;;;;;1033274;28;20030;-21
2023/04/04 02:11:16;;;;;;;12.43;2.53;;;;;;;;;;1033908;28;20057;-24
2023/04/04 02:11:47;;;;;;;12.60;2.10;;;;;;;;;;1033874;28;20092;-23
2023/04/04 02:12:17;;;;;;;9.70;3.13;;;;;;;;;;1033498;28;20104;-23
2023/04/04 02:12:52;;;;;;;12.60;3.55;;;;;;;;;;1031966;28;20061;-23
2023/04/04 02:13:23;;;;;;;29.08;4.43;;;;;;;;;;1032665;28;20410;-23
2023/04/04 02:13:53;;;;;;;6.25;2.70;;;;;;;;;;1032105;28;20061;-21
2023/04/04 02:14:24;;;;;;;21.30;4.07;;;;;;;;;;1031657;28;20033;-22
2023/04/04 02:14:55;;;;;;;8.55;2.67;;;;;;;;;;1031453;28;20477;-19
2023/04/04 02:15:25;;;;;;;12.05;4.85;;;;;;;;;;1033222;28;20125;-21
2023/04/04 02:15:57;;;;;;;3.58;2.25;;;;;;;;;;1033120;28;20036;-22
2023/04/04 02:16:27;;;;;;;11.18;2.90;;;;;;;;;;1031543;28;20549;-22
2023/04/04 02:16:58;;;;;;;21.88;7.82;;;;;;;;;;1032784;28;20034;-23
2023/04/04 02:17:28;;;;;;;28.50;5.90;;;;;;;;;;1032400;28;20796;-24
2023/04/04 02:18:00;;;;;;;29.45;1.88;;;;;;;;;;1033705;28;20037;-22
2023/04/04 02:18:32;;;;;;;19.80;2.53;;;;;;;;;;1030081;28;20026;-22
2023/04/04 02:19:02;;;;;;;4.50;3.03;;;;;;;;;;1028900;28;20094;-22
2023/04/04 02:19:34;;;;;;;10.40;4.43;;;;;;;;;;1031291;28;20034;-23
2023/04/04 02:20:06;;;;;;;17.27;4.15;;;;;;;;;;1033316;28;20038;-21
2023/04/04 02:20:38;;;;;;;8.52;3.83;;;;;;;;;;1032533;28;20030;-22
2023/04/04 02:21:09;;;;;;;9.40;3.88;;;;;;;;;;1034380;28;20042;-21
2023/04/04 02:21:39;;;;;;;11.38;3.22;;;;;;;;;;1033774;28;20022;-23
2023/04/04 02:22:10;;;;;;;3.65;2.08;;;;;;;;;;1030939;28;20411;-21
2023/04/04 02:22:41;;;;;;;10.82;3.33;;;;;;;;;;1032873;28;20092;-22
2023/04/04 02:23:11;;;;;;;3.88;2.60;;;;;;;;;;1034325;28;20060;-22
2023/04/04 02:23:42;;;;;;;16.02;2.58;;;;;;;;;;1034527;28;20025;-24
2023/04/04 02:24:12;;;;;;;3.28;2.20;;;;;;;;;;1033399;28;20038;-24
2023/04/04 02:24:43;;;;;;;21.98;4.20;;;;;;;;;;1033028;28;20092;-23
2023/04/04 02:25:13;;;;;;;10.25;3.25;;;;;;;;;;1033559;28;20489;-22
2023/04/04 02:25:44;;;;;;;18.17;4.28;;;;;;;;;;1034562;28;20025;-24
2023/04/04 02:26:14;;;;;;;9.57;4.25;;;;;;;;;;1032738;28;20033;-22
2023/04/04 02:26:45;;;;;;;11.18;2.90;;;;;;;;;;1032522;28;20029;-23
2023/04/04 02:27:16;;;;;;;10.25;2.90;;;;;;;;;;1033217;28;20447;-22
2023/04/04 02:27:46;;;;;;;5.50;2.40;;;;;;;;;;1033751;28;20079;-21
2023/04/04 02:28:17;;;;;;;6.22;3.08;;;;;;;;;;1033494;28;20022;-23
2023/04/04 02:28:48;;;;;;;6.18;2.47;;;;;;;;;;1033442;28;20037;-22
2023/04/04 02:29:19;;;;;;;4.95;2.92;;;;;;;;;;1033566;28;20580;-23
2023/04/04 02:29:49;;;;;;;3.38;2.78;;;;;;;;;;1031083;28;20320;-22
2023/04/04 02:30:20;;;;;;;6.53;3.53;;;;;;;;;;1033426;28;20171;-24
2023/04/04 02:30:51;;;;;;;7.60;4.38;;;;;;;;;;1034421;28;20481;-22
2023/04/04 02:31:21;;;;;;;13.70;4.35;;;;;;;;;;1033523;28;20035;-23
2023/04/04 02:31:52;;;;;;;17.15;4.95;;;;;;;;;;1032786;28;20061;-23
2023/04/04 02:32:23;;;;;;;7.05;3.55;;;;;;;;;;1034408;28;20029;-23
2023/04/04 02:32:57;;;;;;;20.65;5.35;;;;;;;;;;1033558;28;20030;-24
2023/04/04 02:33:27;;;;;;;20.77;4.28;;;;;;;;;;1034306;28;20053;-22
2023/04/04 02:33:58;;;;;;;21.25;3.58;;;;;;;;;;1033485;28;20485;-20
2023/04/04 02:34:28;;;;;;;29.60;4.93;;;;;;;;;;1033572;28;20026;-22
2023/04/04 02:34:59;;;;;;;10.85;3.75;;;;;;;;;;1030272;28;20034;-22
2023/04/04 02:35:30;;;;;;;5.03;2.47;;;;;;;;;;1033948;28;20160;-22
2023/04/04 02:36:01;;;;;;;23.02;9.07;;;;;;;;;;1031599;28;20025;-21
2023/04/04 02:36:31;;;;;;;49.00;6.18;;;;;;;;;;1032673;28;20045;-24
2023/04/04 02:37:02;;;;;;;13.95;3.72;;;;;;;;;;1031935;28;20032;-23
2023/04/04 02:37:33;;;;;;;8.20;3.60;;;;;;;;;;1031887;28;20383;-21
2023/04/04 02:38:04;;;;;;;26.27;5.50;;;;;;;;;;1031424;28;20078;-24
2023/04/04 02:38:35;;;;;;;20.83;4.38;;;;;;;;;;1030531;28;20426;-20
2023/04/04 02:39:06;;;;;;;13.85;4.32;;;;;;;;;;1031276;28;20042;-23
2023/04/04 02:39:37;;;;;;;3.92;2.75;;;;;;;;;;1032270;28;20072;-20
2023/04/04 02:40:11;;;;;;;8.02;3.70;;;;;;;;;;1033285;28;20433;-20
2023/04/04 02:40:46;;;;;;;9.75;2.53;;;;;;;;;;1038107;28;20021;-24
2023/04/04 02:41:17;;;;;;;25.67;6.63;;;;;;;;;;1037201;28;20044;-20
2023/04/04 02:41:47;;;;;;;8.90;3.17;;;;;;;;;;1036214;28;20025;-23
2023/04/04 02:42:18;;;;;;;9.27;4.15;;;;;;;;;;1034572;28;20128;-23
2023/04/04 02:42:49;;;;;;;10.98;1.90;;;;;;;;;;1030421;28;20072;-23
2023/04/04 02:43:19;;;;;;;17.77;5.45;;;;;;;;;;1032373;28;20042;-24
2023/04/04 02:43:50;;;;;;;14.70;4.10;;;;;;;;;;1031616;28;20621;-22
2023/04/04 02:44:22;;;;;;;9.65;4.68;;;;;;;;;;1031195;28;20115;-22
2023/04/04 02:44:52;;;;;;;22.05;5.20;;;;;;;;;;1030098;28;20486;-22
2023/04/04 02:45:23;;;;;;;13.95;6.03;;;;;;;;;;1031589;28;20613;-24
2023/04/04 02:45:54;;;;;;;15.80;6.68;;;;;;;;;;1033289;28;20033;-23
2023/04/04 02:46:25;;;;;;;6.40;3.20;;;;;;;;;;1031483;28;20061;-24
2023/04/04 02:46:56;;;;;;;13.52;4.28;;;;;;;;;;1032259;28;20041;-24
2023/04/04 02:47:27;;;;;;;8.32;4.13;;;;;;;;;;1033392;28;20034;-22
2023/04/04 02:47:58;;;;;;;11.20;3.38;;;;;;;;;;1028525;28;20665;-19
2023/04/04 02:48:30;;;;;;;5.97;4.15;;;;;;;;;;1030402;28;20133;-20
2023/04/04 02:49:03;;;;;;;6.82;3.50;;;;;;;;;;1030275;28;20478;-23
2023/04/04 02:49:35;;;;;;;22.10;7.05;;;;;;;;;;1030873;28;20617;-22
2023/04/04 02:50:06;;;;;;;35.72;6.38;;;;;;;;;;1027970;28;20038;-21
2023/04/04 02:50:37;;;;;;;23.88;6.55;;;;;;;;;;1029625;28;20077;-20
2023/04/04 02:51:12;;;;;;;17.77;5.05;;;;;;;;;;1031689;28;20800;-23
2023/04/04 02:51:43;;;;;;;20.98;3.85;;;;;;;;;;1021480;28;20085;-22
2023/04/04 02:52:15;;;;;;;21.15;2.83;;;;;;;;;;1026354;28;20124;-23
2023/04/04 02:52:47;;;;;;;32.08;6.03;;;;;;;;;;1028639;28;20765;-23
2023/04/04 02:53:17;;;;;;;31.33;4.57;;;;;;;;;;1030382;28;20033;-24
2023/04/04 02:53:49;;;;;;;26.08;4.22;;;;;;;;;;1029325;28;20356;-24
2023/04/04 02:54:20;;;;;;;26.77;5.47;;;;;;;;;;1030272;28;20042;-21
2023/04/04 02:54:51;;;;;;;28.77;6.20;;;;;;;;;;1034065;28;20367;-24
2023/04/04 02:55:23;;;;;;;26.58;3.92;;;;;;;;;;1031365;28;20045;-24
2023/04/04 02:56:02;;;;;;;23.08;5.93;;;;;;;;;;1034197;28;20030;-21
2023/04/04 02:56:38;;;;;;;40.28;8.90;;;;;;;;;;1026063;28;20467;-23
2023/04/04 02:57:13;;;;;;;26.17;5.22;;;;;;;;;;1031287;28;20130;-24
2023/04/04 02:57:51;;;;;;;31.75;5.20;;;;;;;;;;1037869;28;20033;-23
2023/04/04 02:58:23;;;;;;;18.30;4.80;;;;;;;;;;1027846;28;20036;-24
2023/04/04 02:58:56;;;;;;;5.68;4.80;;;;;;;;;;1030570;28;20048;-23
2023/04/04 02:59:30;;;;;;;13.10;3.78;;;;;;;;;;1025793;28;20022;-25
2023/04/04 03:00:03;;;;;;;16.88;5.30;;;;;;;;;;1023399;28;20053;-25
2023/04/04 03:00:35;;;;;;;15.73;4.25;;;;;;;;;;1022692;28;20049;-24
2023/04/04 03:01:08;;;;;;;12.00;3.33;;;;;;;;;;1023785;28;20082;-22
2023/04/04 03:01:42;;;;;;;27.17;4.93;;;;;;;;;;1027962;28;20026;-22
2023/04/04 03:02:13;;;;;;;4.10;2.97;;;;;;;;;;1027261;28;20442;-21
2023/04/04 03:02:44;;;;;;;33.90;6.72;;;;;;;;;;1032104;28;20026;-25
2023/04/04 03:03:17;;;;;;;41.53;5.72;;;;;;;;;;1029972;28;20893;-24
2023/04/04 03:03:50;;;;;;;16.45;4.78;;;;;;;;;;1029887;28;20033;-24
2023/04/04 03:04:21;;;;;;;34.17;8.48;;;;;;;;;;1029661;28;20030;-24
2023/04/04 03:04:53;;;;;;;46.60;8.50;;;;;;;;;;1029506;28;20023;-24
2023/04/04 03:05:25;;;;;;;20.73;5.57;;;;;;;;;;1024755;28;20125;-23
2023/04/04 03:06:00;;;;;;;17.05;4.80;;;;;;;;;;1033595;28;20045;-24
2023/04/04 03:06:34;;;;;;;9.68;4.75;;;;;;;;;;1026378;28;20034;-25
2023/04/04 03:07:08;;;;;;;9.95;5.85;;;;;;;;;;1028424;28;20072;-23
2023/04/04 03:07:42;;;;;;;16.25;4.75;;;;;;;;;;1023561;28;20508;-23